createdAt,value
2022-12-10T00:01:29.276Z,6.74
2022-12-10T00:03:56.691Z,6.70
2022-12-10T00:06:26.323Z,6.71
2022-12-10T00:08:53.786Z,6.70
2022-12-10T00:11:22.904Z,6.76
2022-12-10T00:13:51.130Z,6.73
2022-12-10T00:16:20.670Z,6.74
2022-12-10T00:18:48.807Z,6.77
2022-12-10T00:21:19.596Z,6.78
2022-12-10T00:23:47.090Z,6.78
2022-12-10T00:26:18.277Z,6.81
2022-12-10T00:28:46.521Z,6.97
2022-12-10T00:31:20.012Z,7.04
2022-12-10T00:33:48.028Z,7.17
2022-12-10T00:36:17.929Z,7.19
2022-12-10T00:38:45.613Z,7.18
2022-12-10T00:41:13.777Z,7.15
2022-12-10T00:43:40.898Z,7.07
2022-12-10T00:46:08.501Z,6.99
2022-12-10T00:48:35.877Z,6.93
2022-12-10T00:51:08.824Z,6.96
2022-12-10T00:53:38.492Z,6.88
2022-12-10T00:56:08.300Z,6.78
2022-12-10T00:58:38.026Z,6.81
2022-12-10T01:01:20.085Z,6.87
2022-12-10T01:03:50.087Z,6.89
2022-12-10T01:06:29.086Z,6.85
2022-12-10T01:08:59.254Z,6.84
2022-12-10T01:11:30.960Z,6.81
2022-12-10T01:13:59.385Z,6.75
2022-12-10T01:16:27.347Z,6.75
2022-12-10T01:18:56.285Z,6.76
2022-12-10T01:21:24.910Z,6.70
2022-12-10T01:23:53.380Z,6.69
2022-12-10T01:26:25.783Z,6.75
2022-12-10T01:28:55.817Z,6.81
2022-12-10T01:31:37.668Z,6.72
2022-12-10T01:34:10.546Z,6.73
2022-12-10T01:36:40.610Z,6.74
2022-12-10T01:39:09.986Z,6.79
2022-12-10T01:41:42.806Z,6.77
2022-12-10T01:44:10.167Z,6.73
2022-12-10T01:46:48.123Z,6.78
2022-12-10T01:49:19.613Z,6.71
2022-12-10T01:51:51.297Z,6.63
2022-12-10T01:54:36.979Z,6.62
2022-12-10T01:57:10.790Z,6.58
2022-12-10T01:59:39.544Z,6.51
2022-12-10T02:02:47.352Z,6.49
2022-12-10T02:05:22.720Z,6.42
2022-12-10T02:08:11.563Z,6.46
2022-12-10T02:10:44.793Z,6.43
2022-12-10T02:13:29.803Z,6.32
2022-12-10T02:16:27.703Z,6.30
2022-12-10T02:19:02.703Z,6.05
2022-12-10T02:21:39.291Z,6.13
2022-12-10T02:24:12.520Z,6.09
2022-12-10T02:26:39.729Z,5.92
2022-12-10T02:29:25.472Z,5.85
2022-12-10T02:31:57.385Z,5.82
2022-12-10T02:34:27.826Z,5.75
2022-12-10T02:37:02.256Z,5.70
2022-12-10T02:39:37.553Z,5.73
2022-12-10T02:42:07.334Z,5.66
2022-12-10T02:44:37.771Z,5.64
2022-12-10T02:47:07.805Z,5.65
2022-12-10T02:49:38.609Z,5.70
2022-12-10T02:52:14.920Z,5.68
2022-12-10T02:54:45.134Z,5.59
2022-12-10T02:57:31.794Z,5.53
2022-12-10T03:00:08.056Z,5.47
2022-12-10T03:02:49.145Z,5.53
2022-12-10T03:05:23.262Z,5.51
2022-12-10T03:07:56.452Z,5.57
2022-12-10T03:10:31.335Z,5.56
2022-12-10T03:13:07.803Z,5.46
2022-12-10T03:15:39.966Z,5.43
2022-12-10T03:18:09.916Z,5.32
2022-12-10T03:20:40.452Z,5.34
2022-12-10T03:23:11.882Z,5.32
2022-12-10T03:25:40.180Z,5.31
2022-12-10T03:28:08.841Z,5.32
2022-12-10T03:30:39.411Z,5.27
2022-12-10T03:33:07.020Z,4.99
2022-12-10T03:35:34.818Z,5.01
2022-12-10T03:38:02.575Z,5.08
2022-12-10T03:40:29.707Z,5.00
2022-12-10T03:42:56.976Z,5.05
2022-12-10T03:45:24.017Z,4.99
2022-12-10T03:47:51.038Z,4.98
2022-12-10T03:50:18.652Z,4.86
2022-12-10T03:52:45.669Z,4.91
2022-12-10T03:55:12.708Z,4.94
2022-12-10T03:57:40.016Z,4.93
2022-12-10T04:00:08.304Z,5.04
2022-12-10T04:02:39.293Z,5.08
2022-12-10T04:05:07.653Z,5.03
2022-12-10T04:07:35.304Z,5.02
2022-12-10T04:10:03.236Z,4.94
2022-12-10T04:12:30.620Z,4.90
2022-12-10T04:15:16.153Z,4.96
2022-12-10T04:17:43.907Z,5.04
2022-12-10T04:20:31.364Z,4.97
2022-12-10T04:23:17.115Z,4.91
2022-12-10T04:26:02.949Z,4.84
2022-12-10T04:28:30.287Z,4.89
2022-12-10T04:30:57.345Z,4.89
2022-12-10T04:33:24.359Z,4.91
2022-12-10T04:35:51.654Z,4.77
2022-12-10T04:38:18.619Z,4.81
2022-12-10T04:40:45.557Z,4.71
2022-12-10T04:43:12.848Z,4.78
2022-12-10T04:45:39.826Z,4.82
2022-12-10T04:48:06.996Z,4.85
2022-12-10T04:50:35.299Z,4.86
2022-12-10T04:53:02.279Z,4.77
2022-12-10T04:55:29.260Z,4.75
2022-12-10T04:57:56.537Z,4.76
2022-12-10T05:00:23.518Z,4.72
2022-12-10T05:02:50.740Z,4.68
2022-12-10T05:05:18.062Z,4.65
2022-12-10T05:07:45.125Z,4.62
2022-12-10T05:10:12.179Z,4.69
2022-12-10T05:12:39.505Z,4.69
2022-12-10T05:15:07.421Z,4.63
2022-12-10T05:17:34.622Z,4.69
2022-12-10T05:20:03.062Z,4.77
2022-12-10T05:22:48.486Z,4.64
2022-12-10T05:25:15.756Z,4.80
2022-12-10T05:27:42.845Z,4.81
2022-12-10T05:30:11.125Z,4.79
2022-12-10T05:32:38.732Z,4.85
2022-12-10T05:35:06.478Z,4.76
2022-12-10T05:37:34.074Z,4.78
2022-12-10T05:40:01.400Z,4.82
2022-12-10T05:42:29.037Z,4.78
2022-12-10T05:44:56.010Z,4.73
2022-12-10T05:47:23.320Z,4.70
2022-12-10T05:49:52.475Z,4.65
2022-12-10T05:52:19.767Z,4.65
2022-12-10T05:54:47.077Z,4.50
2022-12-10T05:57:14.095Z,4.46
2022-12-10T05:59:41.096Z,4.53
2022-12-10T06:02:08.373Z,4.50
2022-12-10T06:04:35.689Z,4.42
2022-12-10T06:07:06.601Z,4.50
2022-12-10T06:09:36.892Z,4.51
2022-12-10T06:12:04.046Z,4.50
2022-12-10T06:14:31.047Z,4.44
2022-12-10T06:16:58.318Z,4.47
2022-12-10T06:19:25.524Z,4.35
2022-12-10T06:21:52.492Z,4.40
2022-12-10T06:24:19.778Z,4.36
2022-12-10T06:26:50.537Z,4.26
2022-12-10T06:29:19.934Z,4.16
2022-12-10T06:31:47.088Z,4.09
2022-12-10T06:34:14.098Z,4.16
2022-12-10T06:36:41.408Z,4.22
2022-12-10T06:39:08.494Z,4.16
2022-12-10T06:41:35.508Z,4.29
2022-12-10T06:44:02.838Z,4.30
2022-12-10T06:46:30.057Z,4.33
2022-12-10T06:48:57.188Z,4.38
2022-12-10T06:51:25.776Z,4.38
2022-12-10T06:53:52.752Z,4.37
2022-12-10T06:56:20.538Z,4.11
2022-12-10T06:58:48.530Z,3.87
2022-12-10T07:01:17.103Z,3.87
2022-12-10T07:03:44.605Z,4.00
2022-12-10T07:06:12.696Z,4.03
2022-12-10T07:08:39.842Z,4.03
2022-12-10T07:11:09.098Z,3.90
2022-12-10T07:13:37.661Z,3.97
2022-12-10T07:16:16.876Z,3.96
2022-12-10T07:18:50.277Z,3.91
2022-12-10T07:21:25.140Z,3.92
2022-12-10T07:23:54.865Z,3.75
2022-12-10T07:26:22.470Z,3.79
2022-12-10T07:28:53.581Z,3.79
2022-12-10T07:31:23.149Z,3.80
2022-12-10T07:33:51.708Z,3.69
2022-12-10T07:36:19.911Z,3.65
2022-12-10T07:38:47.560Z,3.70
2022-12-10T07:41:15.552Z,3.74
2022-12-10T07:43:44.585Z,3.78
2022-12-10T07:46:13.436Z,3.79
2022-12-10T07:48:41.538Z,3.83
2022-12-10T07:51:09.067Z,3.82
2022-12-10T07:53:36.800Z,3.84
2022-12-10T07:56:05.086Z,3.79
2022-12-10T07:58:32.927Z,3.77
2022-12-10T08:01:00.484Z,3.81
2022-12-10T08:03:27.828Z,3.85
2022-12-10T08:06:06.416Z,3.84
2022-12-10T08:08:34.673Z,3.95
2022-12-10T08:11:02.414Z,3.85
2022-12-10T08:13:30.186Z,3.91
2022-12-10T08:16:05.611Z,3.88
2022-12-10T08:18:34.410Z,3.80
2022-12-10T08:21:06.929Z,3.81
2022-12-10T08:23:34.801Z,3.73
2022-12-10T08:26:10.603Z,3.69
2022-12-10T08:28:37.713Z,3.68
2022-12-10T08:31:05.960Z,3.93
2022-12-10T08:33:37.165Z,3.86
2022-12-10T08:36:06.977Z,3.82
2022-12-10T08:38:34.486Z,4.06
2022-12-10T08:41:07.754Z,4.02
2022-12-10T08:43:36.583Z,4.06
2022-12-10T08:46:03.757Z,4.00
2022-12-10T08:48:31.573Z,4.31
2022-12-10T08:50:59.098Z,4.31
2022-12-10T08:53:26.191Z,4.35
2022-12-10T08:55:54.723Z,4.30
2022-12-10T08:58:22.124Z,4.23
2022-12-10T09:00:50.267Z,4.21
2022-12-10T09:03:18.302Z,4.08
2022-12-10T09:05:46.097Z,3.87
2022-12-10T09:08:13.508Z,3.80
2022-12-10T09:10:41.686Z,3.85
2022-12-10T09:13:09.118Z,3.85
2022-12-10T09:15:36.234Z,3.88
2022-12-10T09:18:04.090Z,3.81
2022-12-10T09:20:31.792Z,3.86
2022-12-10T09:22:58.941Z,3.98
2022-12-10T09:25:25.943Z,3.98
2022-12-10T09:27:53.239Z,4.05
2022-12-10T09:30:20.269Z,4.12
2022-12-10T09:32:47.270Z,4.21
2022-12-10T09:35:14.676Z,4.03
2022-12-10T09:37:41.652Z,3.97
2022-12-10T09:40:24.085Z,3.99
2022-12-10T09:43:07.537Z,3.88
2022-12-10T09:45:45.597Z,3.81
2022-12-10T09:48:30.537Z,3.71
2022-12-10T09:51:20.837Z,3.69
2022-12-10T09:53:50.864Z,3.53
2022-12-10T09:56:24.048Z,3.56
2022-12-10T09:58:51.732Z,3.55
2022-12-10T10:01:24.187Z,3.41
2022-12-10T10:03:51.573Z,3.50
2022-12-10T10:06:18.579Z,3.54
2022-12-10T10:08:49.355Z,3.39
2022-12-10T10:11:23.881Z,3.49
2022-12-10T10:13:56.097Z,3.39
2022-12-10T10:16:30.527Z,3.40
2022-12-10T10:18:59.931Z,3.45
2022-12-10T10:21:39.561Z,3.57
2022-12-10T10:24:13.481Z,3.48
2022-12-10T10:26:41.028Z,3.39
2022-12-10T10:29:12.053Z,3.35
2022-12-10T10:31:41.860Z,3.42
2022-12-10T10:34:19.687Z,3.53
2022-12-10T10:36:47.816Z,3.62
2022-12-10T10:39:18.036Z,3.65
2022-12-10T10:41:46.443Z,3.71
2022-12-10T10:44:19.618Z,3.68
2022-12-10T10:46:49.224Z,3.60
2022-12-10T10:49:29.679Z,3.67
2022-12-10T10:52:06.010Z,3.69
2022-12-10T10:54:38.485Z,3.78
2022-12-10T10:57:13.061Z,3.72
2022-12-10T10:59:40.289Z,3.64
2022-12-10T11:02:36.413Z,3.61
2022-12-10T11:05:24.955Z,3.70
2022-12-10T11:08:01.169Z,3.62
2022-12-10T11:10:29.759Z,3.56
2022-12-10T11:13:02.100Z,3.71
2022-12-10T11:15:35.695Z,3.66
2022-12-10T11:18:22.086Z,3.73
2022-12-10T11:21:00.226Z,3.89
2022-12-10T11:23:42.428Z,3.94
2022-12-10T11:26:23.083Z,4.03
2022-12-10T11:29:09.717Z,4.02
2022-12-10T11:31:39.655Z,3.98
2022-12-10T11:34:21.933Z,4.02
2022-12-10T11:37:13.792Z,3.74
2022-12-10T11:39:56.404Z,3.77
2022-12-10T11:42:45.332Z,3.64
2022-12-10T11:45:32.579Z,3.61
2022-12-10T11:48:20.739Z,3.58
2022-12-10T11:51:29.141Z,3.62
2022-12-10T11:54:11.536Z,3.65
2022-12-10T11:56:45.793Z,3.61
2022-12-10T12:00:04.063Z,3.71
2022-12-10T12:02:50.705Z,3.67
2022-12-10T12:05:51.200Z,3.73
2022-12-10T12:08:48.787Z,3.69
2022-12-10T12:11:24.086Z,3.51
2022-12-10T12:14:17.699Z,3.64
2022-12-10T12:16:52.477Z,3.52
2022-12-10T12:19:28.356Z,3.44
2022-12-10T12:21:57.039Z,3.46
2022-12-10T12:24:38.520Z,3.28
2022-12-10T12:27:17.901Z,3.30
2022-12-10T12:30:03.829Z,3.37
2022-12-10T12:32:54.228Z,3.40
2022-12-10T12:35:31.282Z,3.43
2022-12-10T12:38:23.240Z,3.37
2022-12-10T12:40:56.118Z,3.20
2022-12-10T12:43:34.377Z,3.23
2022-12-10T12:46:05.797Z,3.24
2022-12-10T12:48:55.083Z,3.21
2022-12-10T12:51:30.367Z,3.22
2022-12-10T12:53:57.805Z,3.20
2022-12-10T12:56:51.224Z,3.19
2022-12-10T12:59:37.567Z,3.18
2022-12-10T13:02:35.805Z,3.04
2022-12-10T13:05:03.927Z,2.94
2022-12-10T13:07:33.627Z,2.99
2022-12-10T13:10:06.862Z,2.96
2022-12-10T13:12:46.509Z,3.04
2022-12-10T13:15:34.111Z,3.07
2022-12-10T13:18:04.729Z,3.05
2022-12-10T13:20:42.217Z,3.14
2022-12-10T13:23:24.895Z,3.15
2022-12-10T13:25:54.367Z,3.10
2022-12-10T13:28:27.015Z,3.03
2022-12-10T13:31:17.239Z,3.03
2022-12-10T13:34:02.819Z,2.98
2022-12-10T13:37:01.891Z,3.08
2022-12-10T13:39:29.136Z,3.08
2022-12-10T13:42:30.197Z,2.99
2022-12-10T13:45:23.828Z,2.96
2022-12-10T13:48:16.878Z,2.96
2022-12-10T13:51:00.493Z,2.92
2022-12-10T13:53:47.320Z,2.91
2022-12-10T13:56:23.756Z,2.90
2022-12-10T13:59:25.593Z,2.82
2022-12-10T14:02:01.928Z,2.90
2022-12-10T14:05:14.215Z,2.85
2022-12-10T14:07:47.776Z,2.85
2022-12-10T14:10:19.241Z,2.88
2022-12-10T14:12:47.065Z,2.85
2022-12-10T14:15:27.604Z,2.77
2022-12-10T14:18:03.815Z,2.88
2022-12-10T14:20:35.196Z,2.77
2022-12-10T14:23:45.705Z,2.78
2022-12-10T14:26:21.446Z,2.81
2022-12-10T14:28:50.272Z,2.78
2022-12-10T14:31:26.879Z,2.80
2022-12-10T14:33:58.075Z,2.83
2022-12-10T14:36:35.823Z,2.76
2022-12-10T14:39:03.768Z,2.77
2022-12-10T14:41:39.062Z,2.74
2022-12-10T14:44:12.108Z,2.75
2022-12-10T14:46:39.406Z,2.72
2022-12-10T14:49:24.760Z,2.68
2022-12-10T14:51:52.793Z,2.79
2022-12-10T14:54:35.348Z,2.77
2022-12-10T14:57:08.147Z,2.73
2022-12-10T14:59:47.435Z,2.73
2022-12-10T15:02:37.138Z,2.65
2022-12-10T15:05:11.414Z,2.63
2022-12-10T15:07:41.039Z,2.57
2022-12-10T15:10:22.383Z,2.57
2022-12-10T15:12:52.294Z,2.66
2022-12-10T15:15:38.854Z,2.61
2022-12-10T15:18:10.995Z,2.63
2022-12-10T15:20:50.688Z,2.64
2022-12-10T15:23:24.467Z,2.58
2022-12-10T15:26:01.611Z,2.64
2022-12-10T15:28:30.450Z,2.56
2022-12-10T15:31:15.443Z,2.60
2022-12-10T15:34:12.282Z,2.53
2022-12-10T15:36:55.696Z,2.53
2022-12-10T15:39:35.824Z,2.52
2022-12-10T15:42:07.360Z,2.50
2022-12-10T15:44:40.337Z,2.53
2022-12-10T15:47:20.920Z,2.53
2022-12-10T15:49:50.248Z,2.56
2022-12-10T15:52:18.576Z,2.55
2022-12-10T15:54:48.713Z,2.54
2022-12-10T15:57:23.508Z,2.54
2022-12-10T15:59:56.117Z,2.56
2022-12-10T16:02:55.737Z,2.69
2022-12-10T16:05:34.355Z,2.67
2022-12-10T16:08:12.096Z,2.73
2022-12-10T16:10:39.665Z,2.70
2022-12-10T16:13:12.192Z,2.70
2022-12-10T16:16:03.984Z,2.73
2022-12-10T16:18:34.241Z,2.77
2022-12-10T16:21:02.088Z,2.78
2022-12-10T16:23:29.290Z,2.77
2022-12-10T16:25:56.374Z,2.74
2022-12-10T16:28:24.265Z,2.75
2022-12-10T16:30:53.758Z,2.74
2022-12-10T16:33:22.915Z,2.68
2022-12-10T16:35:51.758Z,2.69
2022-12-10T16:38:19.786Z,2.61
2022-12-10T16:40:48.363Z,2.68
2022-12-10T16:43:19.080Z,2.65
2022-12-10T16:45:46.964Z,2.76
2022-12-10T16:48:14.458Z,2.76
2022-12-10T16:50:42.865Z,2.79
2022-12-10T16:53:17.525Z,2.76
2022-12-10T16:55:45.315Z,2.82
2022-12-10T16:58:17.471Z,2.88
2022-12-10T17:00:53.788Z,2.85
2022-12-10T17:03:24.144Z,2.82
2022-12-10T17:06:00.500Z,2.88
2022-12-10T17:08:28.908Z,2.88
2022-12-10T17:11:17.044Z,2.94
2022-12-10T17:13:45.710Z,3.01
2022-12-10T17:16:22.502Z,3.05
2022-12-10T17:18:49.930Z,3.07
2022-12-10T17:21:17.236Z,3.08
2022-12-10T17:23:44.530Z,3.18
2022-12-10T17:26:28.179Z,3.12
2022-12-10T17:29:00.970Z,3.09
2022-12-10T17:31:28.186Z,3.18
2022-12-10T17:33:55.632Z,3.20
2022-12-10T17:36:22.783Z,3.20
2022-12-10T17:38:49.848Z,3.21
2022-12-10T17:41:17.419Z,3.17
2022-12-10T17:43:48.673Z,3.12
2022-12-10T17:46:19.790Z,3.11
2022-12-10T17:48:47.114Z,3.18
2022-12-10T17:51:14.418Z,3.12
2022-12-10T17:53:43.843Z,3.12
2022-12-10T17:56:15.705Z,3.23
2022-12-10T17:58:42.978Z,3.26
2022-12-10T18:01:10.616Z,3.25
2022-12-10T18:03:38.410Z,3.27
2022-12-10T18:06:13.802Z,3.31
2022-12-10T18:08:41.374Z,3.39
2022-12-10T18:11:14.636Z,3.33
2022-12-10T18:13:47.471Z,3.33
2022-12-10T18:16:21.793Z,3.37
2022-12-10T18:18:49.471Z,3.43
2022-12-10T18:21:18.397Z,3.37
2022-12-10T18:23:46.827Z,3.37
2022-12-10T18:26:18.136Z,3.44
2022-12-10T18:28:48.866Z,3.44
2022-12-10T18:31:23.325Z,3.45
2022-12-10T18:33:53.887Z,3.48
2022-12-10T18:36:27.124Z,3.45
2022-12-10T18:38:55.550Z,3.47
2022-12-10T18:41:24.289Z,3.42
2022-12-10T18:43:51.990Z,3.46
2022-12-10T18:46:23.705Z,3.51
2022-12-10T18:48:51.576Z,3.46
2022-12-10T18:51:19.699Z,3.44
2022-12-10T18:53:48.189Z,3.42
2022-12-10T18:56:19.122Z,3.34
2022-12-10T18:58:46.371Z,3.34
2022-12-10T19:01:15.818Z,3.28
2022-12-10T19:03:48.191Z,3.32
2022-12-10T19:06:19.298Z,3.39
2022-12-10T19:11:34.823Z,3.42
2022-12-10T19:14:02.159Z,3.51
2022-12-10T19:16:29.185Z,3.53
2022-12-10T19:18:58.188Z,3.53
2022-12-10T19:21:25.487Z,3.53
2022-12-10T19:23:52.512Z,3.50
2022-12-10T19:26:33.085Z,3.54
2022-12-10T19:29:02.977Z,3.47
2022-12-10T19:31:30.492Z,3.51
2022-12-10T19:33:57.567Z,3.47
2022-12-10T19:36:27.787Z,3.56
2022-12-10T19:38:56.477Z,3.62
2022-12-10T19:41:23.907Z,3.55
2022-12-10T19:43:51.704Z,3.49
2022-12-10T19:46:22.624Z,3.42
2022-12-10T19:48:50.752Z,3.37
2022-12-10T19:51:18.724Z,3.29
2022-12-10T19:53:50.262Z,3.28
2022-12-10T19:56:22.056Z,3.28
2022-12-10T19:58:50.867Z,3.35
2022-12-10T20:01:18.055Z,3.35
2022-12-10T20:03:45.607Z,3.38
2022-12-10T20:06:15.075Z,3.31
2022-12-10T20:08:42.285Z,3.23
2022-12-10T20:11:09.592Z,3.34
2022-12-10T20:13:36.816Z,3.30
2022-12-10T20:16:04.727Z,3.35
2022-12-10T20:18:32.071Z,3.34
2022-12-10T20:20:59.159Z,3.35
2022-12-10T20:23:26.647Z,3.37
2022-12-10T20:25:53.957Z,3.37
2022-12-10T20:28:21.850Z,3.40
2022-12-10T20:30:48.924Z,3.36
2022-12-10T20:33:44.879Z,3.31
2022-12-10T20:36:03.355Z,3.18
2022-12-10T20:38:30.752Z,3.18
2022-12-10T20:40:57.993Z,3.29
2022-12-10T20:43:25.022Z,3.23
2022-12-10T20:45:52.303Z,3.21
2022-12-10T20:48:19.335Z,3.19
2022-12-10T20:50:46.412Z,3.27
2022-12-10T20:53:13.748Z,3.25
2022-12-10T20:55:41.297Z,3.22
2022-12-10T20:58:11.039Z,3.21
2022-12-10T21:00:38.760Z,3.22
2022-12-10T21:03:05.781Z,3.21
2022-12-10T21:05:32.775Z,3.18
2022-12-10T21:08:01.276Z,3.18
2022-12-10T21:11:03.760Z,3.21
2022-12-10T21:13:31.923Z,3.16
2022-12-10T21:16:00.580Z,3.22
2022-12-10T21:18:30.085Z,3.31
2022-12-10T21:20:59.358Z,3.26
2022-12-10T21:23:28.131Z,3.26
2022-12-10T21:25:55.865Z,3.22
2022-12-10T21:28:25.111Z,3.22
2022-12-10T21:30:53.635Z,3.24
2022-12-10T21:33:23.128Z,3.29
2022-12-10T21:35:51.662Z,3.16
2022-12-10T21:38:19.091Z,3.19
2022-12-10T21:40:47.236Z,3.30
2022-12-10T21:43:27.018Z,3.28
2022-12-10T21:45:56.396Z,3.27
2022-12-10T21:48:26.728Z,3.24
2022-12-10T21:51:01.860Z,3.15
2022-12-10T21:53:30.026Z,3.21
2022-12-10T21:55:57.082Z,3.19
2022-12-10T21:58:24.158Z,3.12
2022-12-10T22:00:58.245Z,3.12
2022-12-10T22:03:25.836Z,3.05
2022-12-10T22:05:53.290Z,3.05
2022-12-10T22:08:20.663Z,3.10
2022-12-10T22:10:50.410Z,3.15
2022-12-10T22:13:18.870Z,3.13
2022-12-10T22:15:47.169Z,3.04
2022-12-10T22:18:15.863Z,3.00
2022-12-10T22:20:44.512Z,2.97
2022-12-10T22:23:15.924Z,3.00
2022-12-10T22:25:43.451Z,2.94
2022-12-10T22:28:10.775Z,2.90
2022-12-10T22:30:40.620Z,2.84
2022-12-10T22:33:08.864Z,2.85
2022-12-10T22:35:37.255Z,2.86
2022-12-10T22:38:05.583Z,2.80
2022-12-10T22:40:33.399Z,2.79
2022-12-10T22:43:20.112Z,2.85
2022-12-10T22:45:47.870Z,2.78
2022-12-10T22:48:14.869Z,2.66
2022-12-10T22:50:41.844Z,2.63
2022-12-10T22:53:09.121Z,2.60
2022-12-10T22:55:36.092Z,2.59
2022-12-10T22:58:05.642Z,2.49
2022-12-10T23:00:33.248Z,2.50
2022-12-10T23:03:01.458Z,2.55
2022-12-10T23:05:29.074Z,2.58
2022-12-10T23:07:56.404Z,2.55
2022-12-10T23:10:25.379Z,2.46
2022-12-10T23:13:07.750Z,2.41
2022-12-10T23:15:35.150Z,2.41
2022-12-10T23:18:02.113Z,2.39
2022-12-10T23:20:30.863Z,2.41
2022-12-10T23:22:58.145Z,2.38
2022-12-10T23:25:25.207Z,2.34
2022-12-10T23:27:52.407Z,2.30
2022-12-10T23:30:19.734Z,2.27
2022-12-10T23:32:46.825Z,2.27
2022-12-10T23:35:13.885Z,2.28
2022-12-10T23:37:41.629Z,2.20
2022-12-10T23:40:09.733Z,2.24
2022-12-10T23:42:37.718Z,2.19
2022-12-10T23:45:05.508Z,2.15
2022-12-10T23:47:32.490Z,2.18
2022-12-10T23:49:59.486Z,2.08
2022-12-10T23:52:26.808Z,2.03
2022-12-10T23:54:53.783Z,2.03
2022-12-10T23:57:20.805Z,2.04
2022-12-10T23:59:48.106Z,1.91
